Terminal Aerodrome Forecast
Issued by NWS

Home | Current Version | Previous Version | Text Only | Print | Product List | Glossary On
Versions: 1 2 3 4 5 6 7 8 9 10 11 12 13 14 15 16 17
000
FTUS43 KDLH 282336
TAFHYR
TAF
KHYR 282336Z 2900/2924 23008G14KT P6SM FEW035 SCT045
     FM290100 20012G20KT P6SM VCTS SCT040CB
      TEMPO 2901/2904 -TSRA SCT025 BKN040CB
     FM290400 22010KT P6SM FEW050
     FM290800 24007KT P6SM SKC WS010/26040KT
     FM291400 24014G30KT P6SM SKC=

USA.gov is the U.S. government's official web portal to all federal, state and local government web resources and services.